createdAt,value
2023-03-27T00:00:26.515Z,95849.91
2023-03-27T00:05:29.365Z,95848.03
2023-03-27T00:10:33.683Z,95840.19
2023-03-27T00:15:37.627Z,95852.34
2023-03-27T00:20:40.677Z,95862.88
2023-03-27T00:25:46.359Z,95873.66
2023-03-27T00:30:49.638Z,95889.56
2023-03-27T00:35:53.220Z,95897.13
2023-03-27T00:40:57.654Z,95906.84
2023-03-27T00:46:03.998Z,95915.19
2023-03-27T00:51:07.322Z,95919.81
2023-03-27T00:56:12.203Z,95926.81
2023-03-27T01:01:16.765Z,95928.41
2023-03-27T01:06:20.110Z,95941.13
2023-03-27T01:11:36.796Z,95938.13
2023-03-27T01:16:46.929Z,95951.91
2023-03-27T01:22:16.322Z,95953.53
2023-03-27T01:27:22.874Z,95966.47
2023-03-27T01:32:53.710Z,95958.09
2023-03-27T01:38:11.497Z,95960.53
2023-03-27T01:43:17.995Z,95961.06
2023-03-27T01:48:27.009Z,95973.78
2023-03-27T01:53:33.083Z,95981.88
2023-03-27T01:58:42.400Z,95989.97
2023-03-27T02:03:47.246Z,95988.34
2023-03-27T02:08:52.754Z,95994.28
2023-03-27T02:13:59.422Z,95998.06
2023-03-27T02:19:04.143Z,96015.03
2023-03-27T02:24:08.921Z,96023.41
2023-03-27T02:29:41.535Z,96023.41
2023-03-27T02:35:03.065Z,96039.34
2023-03-27T02:40:13.738Z,96033.66
2023-03-27T02:45:25.639Z,96028.81
2023-03-27T02:50:32.941Z,96047.69
2023-03-27T02:55:39.082Z,96050.13
2023-03-27T03:00:48.805Z,96034.50
2023-03-27T03:05:52.088Z,96060.94
2023-03-27T03:11:01.113Z,96065.50
2023-03-27T03:16:06.120Z,96095.19
2023-03-27T03:21:08.926Z,96088.19
2023-03-27T03:26:12.257Z,96100.59
2023-03-27T03:31:16.957Z,96134.38
2023-03-27T03:36:19.863Z,96131.66
2023-03-27T03:41:22.652Z,96130.59
2023-03-27T03:46:26.854Z,96154.88
2023-03-27T03:51:31.341Z,96151.09
2023-03-27T03:56:34.426Z,96154.59
2023-03-27T04:01:40.758Z,96167.81
2023-03-27T04:06:45.254Z,96161.06
2023-03-27T04:11:48.142Z,96165.94
2023-03-27T04:16:52.280Z,96173.50
2023-03-27T04:21:56.239Z,96169.47
2023-03-27T04:27:01.107Z,96171.34
2023-03-27T04:32:06.748Z,96179.69
2023-03-27T04:37:09.545Z,96189.69
2023-03-27T04:42:12.625Z,96180.22
2023-03-27T04:47:17.028Z,96190.78
2023-03-27T04:52:20.002Z,96202.13
2023-03-27T04:57:26.823Z,96202.13
2023-03-27T05:02:31.258Z,96217.50
2023-03-27T05:07:34.275Z,96219.38
2023-03-27T05:12:37.197Z,96242.63
2023-03-27T05:17:42.184Z,96253.41
2023-03-27T05:22:45.327Z,96262.31
2023-03-27T05:27:48.919Z,96261.75
2023-03-27T05:32:53.824Z,96273.66
2023-03-27T05:37:57.478Z,96292.53
2023-03-27T05:43:00.502Z,96292.53
2023-03-27T05:48:05.120Z,96304.41
2023-03-27T05:53:11.511Z,96326.56
2023-03-27T05:58:14.897Z,96321.44
2023-03-27T06:03:20.363Z,96325.75
2023-03-27T06:08:23.395Z,96327.38
2023-03-27T06:13:26.222Z,96335.75
2023-03-27T06:18:30.360Z,96338.47
2023-03-27T06:23:33.366Z,96335.47
2023-03-27T06:28:36.806Z,96355.72
2023-03-27T06:33:41.137Z,96364.91
2023-03-27T06:38:44.000Z,96370.31
2023-03-27T06:43:46.919Z,96379.50
2023-03-27T06:48:51.999Z,96390.78
2023-03-27T06:53:55.266Z,96409.19
2023-03-27T06:58:58.364Z,96423.50
2023-03-27T07:04:02.941Z,96424.06
2023-03-27T07:09:05.737Z,96413.78
2023-03-27T07:14:08.628Z,96424.34
2023-03-27T07:19:12.979Z,96432.75
2023-03-27T07:24:15.867Z,96444.81
2023-03-27T07:29:18.859Z,96463.53
2023-03-27T07:34:24.494Z,96467.03
2023-03-27T07:39:27.392Z,96470.28
2023-03-27T07:44:30.229Z,96476.81
2023-03-27T07:49:34.434Z,96492.53
2023-03-27T07:54:43.723Z,96500.38
2023-03-27T07:59:46.598Z,96502.06
2023-03-27T08:04:52.053Z,96522.06
2023-03-27T08:09:57.499Z,96517.50
2023-03-27T08:15:00.782Z,96531.53
2023-03-27T08:20:09.146Z,96533.97
2023-03-27T08:25:12.628Z,96565.00
2023-03-27T08:30:17.105Z,96569.84
2023-03-27T08:35:21.619Z,96600.34
2023-03-27T08:40:26.715Z,96575.50
2023-03-27T08:45:33.335Z,96571.94
2023-03-27T08:50:39.904Z,96579.78
2023-03-27T08:55:44.550Z,96575.69
2023-03-27T09:00:51.445Z,96575.19
2023-03-27T09:05:59.248Z,96589.50
2023-03-27T09:11:06.606Z,96606.03
2023-03-27T09:16:15.444Z,96613.84
2023-03-27T09:21:22.752Z,96636.56
2023-03-27T09:26:31.410Z,96641.97
2023-03-27T09:31:35.447Z,96641.25
2023-03-27T09:36:39.770Z,96666.72
2023-03-27T09:41:44.288Z,96678.13
2023-03-27T09:46:49.240Z,96693.81
2023-03-27T09:51:54.593Z,96697.59
2023-03-27T09:57:01.881Z,96698.72
2023-03-27T10:02:15.930Z,96710.31
2023-03-27T10:07:25.948Z,96711.41
2023-03-27T10:12:28.800Z,96694.94
2023-03-27T10:17:36.736Z,96700.84
2023-03-27T10:22:42.643Z,96712.97
2023-03-27T10:27:46.543Z,96714.88
2023-03-27T10:32:49.438Z,96725.97
2023-03-27T10:37:54.015Z,96725.22
2023-03-27T10:42:57.238Z,96716.47
2023-03-27T10:48:01.995Z,96730.50
2023-03-27T10:53:14.876Z,96738.13
2023-03-27T10:58:24.725Z,96735.13
2023-03-27T11:03:33.587Z,96745.72
2023-03-27T11:08:54.451Z,96756.78
2023-03-27T11:14:02.491Z,96761.41
2023-03-27T11:19:25.627Z,96768.16
2023-03-27T11:24:33.073Z,96775.63
2023-03-27T11:29:41.212Z,96802.94
2023-03-27T11:34:49.176Z,96809.34
2023-03-27T11:39:55.949Z,96819.88
2023-03-27T11:44:59.570Z,96816.09
2023-03-27T11:50:15.683Z,96820.78
2023-03-27T11:55:26.123Z,96837.34
2023-03-27T12:00:32.772Z,96836.22
2023-03-27T12:05:46.570Z,96843.88
2023-03-27T12:10:53.356Z,96861.41
2023-03-27T12:16:30.252Z,96862.97
2023-03-27T12:21:44.945Z,96870.00
2023-03-27T12:27:05.270Z,96868.44
2023-03-27T12:32:18.006Z,96868.97
2023-03-27T12:37:24.603Z,96864.69
2023-03-27T12:42:45.390Z,96882.25
2023-03-27T12:48:09.985Z,96868.56
2023-03-27T12:53:20.825Z,96874.16
2023-03-27T12:58:36.816Z,96875.19
2023-03-27T13:04:07.254Z,96881.94
2023-03-27T13:09:21.244Z,96886.00
2023-03-27T13:14:51.436Z,96893.84
2023-03-27T13:19:59.664Z,96897.84
2023-03-27T13:25:27.118Z,96900.78
2023-03-27T13:30:47.279Z,96910.00
2023-03-27T13:36:02.825Z,96917.47
2023-03-27T13:41:56.325Z,96917.47
2023-03-27T13:47:11.910Z,96925.19
2023-03-27T13:52:26.270Z,96928.13
2023-03-27T13:57:44.102Z,96934.47
2023-03-27T14:03:21.058Z,96949.84
2023-03-27T14:08:33.628Z,96961.31
2023-03-27T14:13:46.214Z,96976.84
2023-03-27T14:19:26.969Z,96982.75
2023-03-27T14:24:32.932Z,96978.47
2023-03-27T14:29:37.220Z,96985.28
2023-03-27T14:34:53.255Z,96985.53
2023-03-27T14:39:57.554Z,96987.75
2023-03-27T14:45:11.628Z,96988.69
2023-03-27T14:50:21.620Z,96987.72
2023-03-27T14:55:29.813Z,96983.28
2023-03-27T15:00:35.051Z,96982.75
2023-03-27T15:05:54.001Z,96979.06
2023-03-27T15:10:58.745Z,96983.44
2023-03-27T15:16:02.922Z,96992.47
2023-03-27T15:21:10.064Z,96990.25
2023-03-27T15:26:15.635Z,96993.63
2023-03-27T15:31:18.829Z,97004.22
2023-03-27T15:36:27.741Z,97002.88
2023-03-27T15:41:44.140Z,97005.00
2023-03-27T15:46:55.329Z,97008.41
2023-03-27T15:52:01.340Z,97009.91
2023-03-27T15:57:10.136Z,97009.75
2023-03-27T16:02:16.179Z,97015.56
2023-03-27T16:07:22.733Z,97026.59
2023-03-27T16:12:28.267Z,97032.84
2023-03-27T16:17:35.549Z,97035.72
2023-03-27T16:22:40.564Z,97041.88
2023-03-27T16:27:47.472Z,97050.22
2023-03-27T16:32:51.044Z,97053.41
2023-03-27T16:37:55.402Z,97067.13
2023-03-27T16:42:58.273Z,97058.97
2023-03-27T16:48:01.172Z,97066.19
2023-03-27T16:53:05.444Z,97077.47
2023-03-27T16:58:08.271Z,97084.16
2023-03-27T17:03:11.581Z,97093.28
2023-03-27T17:08:18.483Z,97087.75
2023-03-27T17:13:21.294Z,97089.56
2023-03-27T17:18:24.195Z,97093.31
2023-03-27T17:23:28.446Z,97101.88
2023-03-27T17:28:32.031Z,97106.97
2023-03-27T17:33:35.033Z,97123.13
2023-03-27T17:38:39.726Z,97127.38
2023-03-27T17:43:42.524Z,97130.03
2023-03-27T17:48:45.913Z,97144.06
2023-03-27T17:53:50.094Z,97155.63
2023-03-27T17:58:53.390Z,97156.13
2023-03-27T18:03:57.880Z,97162.34
2023-03-27T18:09:02.130Z,97166.94
2023-03-27T18:14:05.007Z,97170.97
2023-03-27T18:19:08.905Z,97184.97
2023-03-27T18:24:13.406Z,97195.22
2023-03-27T18:29:16.454Z,97201.94
2023-03-27T18:34:19.268Z,97210.56
2023-03-27T18:39:23.555Z,97208.34
2023-03-27T18:44:26.839Z,97206.88
2023-03-27T18:49:29.727Z,97217.38
2023-03-27T18:54:33.905Z,97223.53
2023-03-27T18:59:37.006Z,97228.84
2023-03-27T19:04:39.856Z,97223.69
2023-03-27T19:09:45.512Z,97215.00
2023-03-27T19:14:48.422Z,97215.50
2023-03-27T19:19:51.309Z,97217.38
2023-03-27T19:24:55.547Z,97221.16
2023-03-27T19:29:58.349Z,97225.75
2023-03-27T19:35:01.237Z,97215.41
2023-03-27T19:40:06.455Z,97215.91
2023-03-27T19:45:10.200Z,97214.03
2023-03-27T19:50:14.557Z,97220.47
2023-03-27T19:55:23.976Z,97228.59
2023-03-27T20:00:27.218Z,97238.00
2023-03-27T20:05:30.873Z,97232.03
2023-03-27T20:10:35.010Z,97233.91
2023-03-27T20:15:40.642Z,97227.19
2023-03-27T20:20:43.452Z,97232.59
2023-03-27T20:25:51.628Z,97241.78
2023-03-27T20:30:54.574Z,97231.19
2023-03-27T20:35:57.667Z,97229.56
2023-03-27T20:41:03.551Z,97228.13
2023-03-27T20:46:07.107Z,97227.09
2023-03-27T20:51:14.671Z,97238.72
2023-03-27T20:56:19.012Z,97240.84
2023-03-27T21:01:27.847Z,97246.50
2023-03-27T21:06:30.863Z,97260.22
2023-03-27T21:11:35.198Z,97261.22
2023-03-27T21:16:38.442Z,97269.06
2023-03-27T21:21:41.313Z,97259.09
2023-03-27T21:26:45.486Z,97268.25
2023-03-27T21:31:48.366Z,97275.53
2023-03-27T21:36:51.466Z,97267.34
2023-03-27T21:41:55.739Z,97257.84
2023-03-27T21:46:58.615Z,97265.44
2023-03-27T21:52:01.413Z,97265.72
2023-03-27T21:57:05.999Z,97258.09
2023-03-27T22:02:09.007Z,97259.16
2023-03-27T22:07:11.823Z,97272.88
2023-03-27T22:12:16.550Z,97263.97
2023-03-27T22:17:19.436Z,97266.91
2023-03-27T22:22:22.482Z,97275.25
2023-03-27T22:27:26.684Z,97283.13
2023-03-27T22:32:29.571Z,97283.59
2023-03-27T22:37:32.410Z,97274.94
2023-03-27T22:42:36.806Z,97275.16
2023-03-27T22:47:39.745Z,97276.00
2023-03-27T22:52:42.610Z,97282.94
2023-03-27T22:57:46.770Z,97279.50
2023-03-27T23:02:49.800Z,97286.47
2023-03-27T23:07:52.692Z,97293.50
2023-03-27T23:12:56.826Z,97293.97
2023-03-27T23:17:59.769Z,97292.31
2023-03-27T23:23:03.830Z,97296.94
2023-03-27T23:28:08.018Z,97302.78
2023-03-27T23:33:11.119Z,97310.66
2023-03-27T23:38:14.021Z,97306.56
2023-03-27T23:43:18.171Z,97312.19
2023-03-27T23:48:21.173Z,97306.56
2023-03-27T23:53:25.744Z,97311.63
2023-03-27T23:58:32.448Z,97313.50
